sensor_id;sensor_type;location;lat;lon;timestamp;P1;durP1;ratioP1;P2;durP2;ratioP2
20080;SDS011;10200;49.232;9.222;2024-02-26T00:00:09;2.83;;;1.93;;
20080;SDS011;10200;49.232;9.222;2024-02-26T00:02:36;1.77;;;1.30;;
20080;SDS011;10200;49.232;9.222;2024-02-26T00:05:06;1.80;;;1.30;;
20080;SDS011;10200;49.232;9.222;2024-02-26T00:07:32;5.03;;;1.60;;
20080;SDS011;10200;49.232;9.222;2024-02-26T00:09:58;2.10;;;1.47;;
20080;SDS011;10200;49.232;9.222;2024-02-26T00:12:23;1.63;;;1.20;;
20080;SDS011;10200;49.232;9.222;2024-02-26T00:14:49;2.23;;;1.30;;
20080;SDS011;10200;49.232;9.222;2024-02-26T00:17:15;3.87;;;2.03;;
20080;SDS011;10200;49.232;9.222;2024-02-26T00:19:41;2.90;;;1.70;;
20080;SDS011;10200;49.232;9.222;2024-02-26T00:22:06;1.83;;;1.50;;
20080;SDS011;10200;49.232;9.222;2024-02-26T00:24:32;3.13;;;1.30;;
20080;SDS011;10200;49.232;9.222;2024-02-26T00:26:58;1.20;;;1.10;;
20080;SDS011;10200;49.232;9.222;2024-02-26T00:29:24;1.63;;;1.50;;
20080;SDS011;10200;49.232;9.222;2024-02-26T00:31:50;1.83;;;1.33;;
20080;SDS011;10200;49.232;9.222;2024-02-26T00:34:16;2.50;;;1.47;;
20080;SDS011;10200;49.232;9.222;2024-02-26T00:36:41;1.70;;;1.40;;
20080;SDS011;10200;49.232;9.222;2024-02-26T00:39:07;1.93;;;1.53;;
20080;SDS011;10200;49.232;9.222;2024-02-26T00:41:33;1.90;;;1.20;;
20080;SDS011;10200;49.232;9.222;2024-02-26T00:44:03;1.43;;;1.27;;
20080;SDS011;10200;49.232;9.222;2024-02-26T00:46:29;3.00;;;1.80;;
20080;SDS011;10200;49.232;9.222;2024-02-26T00:48:54;2.87;;;1.83;;
20080;SDS011;10200;49.232;9.222;2024-02-26T00:51:20;2.37;;;1.60;;
20080;SDS011;10200;49.232;9.222;2024-02-26T00:53:45;2.07;;;1.60;;
20080;SDS011;10200;49.232;9.222;2024-02-26T00:56:11;1.90;;;1.47;;
20080;SDS011;10200;49.232;9.222;2024-02-26T00:58:36;1.63;;;1.43;;
20080;SDS011;10200;49.232;9.222;2024-02-26T01:01:02;1.77;;;1.40;;
20080;SDS011;10200;49.232;9.222;2024-02-26T01:03:28;2.20;;;1.37;;
20080;SDS011;10200;49.232;9.222;2024-02-26T01:05:54;2.23;;;1.43;;
20080;SDS011;10200;49.232;9.222;2024-02-26T01:08:19;1.80;;;1.50;;
20080;SDS011;10200;49.232;9.222;2024-02-26T01:10:45;2.97;;;1.73;;
20080;SDS011;10200;49.232;9.222;2024-02-26T01:13:11;2.60;;;1.50;;
20080;SDS011;10200;49.232;9.222;2024-02-26T01:15:36;1.70;;;1.50;;
20080;SDS011;10200;49.232;9.222;2024-02-26T01:18:02;2.10;;;1.40;;
20080;SDS011;10200;49.232;9.222;2024-02-26T01:20:28;2.47;;;1.70;;
20080;SDS011;10200;49.232;9.222;2024-02-26T01:22:53;2.43;;;1.40;;
20080;SDS011;10200;49.232;9.222;2024-02-26T01:25:19;1.30;;;1.00;;
20080;SDS011;10200;49.232;9.222;2024-02-26T01:27:44;1.30;;;1.20;;
20080;SDS011;10200;49.232;9.222;2024-02-26T01:30:10;2.60;;;1.60;;
20080;SDS011;10200;49.232;9.222;2024-02-26T01:32:36;2.87;;;1.90;;
20080;SDS011;10200;49.232;9.222;2024-02-26T01:35:02;3.60;;;1.60;;
20080;SDS011;10200;49.232;9.222;2024-02-26T01:37:28;2.63;;;1.50;;
20080;SDS011;10200;49.232;9.222;2024-02-26T01:39:57;1.83;;;1.67;;
20080;SDS011;10200;49.232;9.222;2024-02-26T01:42:22;1.93;;;1.50;;
20080;SDS011;10200;49.232;9.222;2024-02-26T01:44:48;1.33;;;1.13;;
20080;SDS011;10200;49.232;9.222;2024-02-26T01:47:13;4.83;;;1.40;;
20080;SDS011;10200;49.232;9.222;2024-02-26T01:49:39;4.67;;;1.70;;
20080;SDS011;10200;49.232;9.222;2024-02-26T01:52:06;1.87;;;1.67;;
20080;SDS011;10200;49.232;9.222;2024-02-26T01:54:34;2.63;;;1.57;;
20080;SDS011;10200;49.232;9.222;2024-02-26T01:57:01;2.20;;;1.40;;
20080;SDS011;10200;49.232;9.222;2024-02-26T01:59:28;2.50;;;1.63;;
20080;SDS011;10200;49.232;9.222;2024-02-26T02:01:54;2.90;;;1.73;;
20080;SDS011;10200;49.232;9.222;2024-02-26T02:04:22;2.80;;;1.93;;
20080;SDS011;10200;49.232;9.222;2024-02-26T02:06:49;4.57;;;1.90;;
20080;SDS011;10200;49.232;9.222;2024-02-26T02:09:15;2.03;;;1.80;;
20080;SDS011;10200;49.232;9.222;2024-02-26T02:11:41;1.50;;;1.40;;
20080;SDS011;10200;49.232;9.222;2024-02-26T02:14:07;1.70;;;1.60;;
20080;SDS011;10200;49.232;9.222;2024-02-26T02:16:32;3.30;;;1.83;;
20080;SDS011;10200;49.232;9.222;2024-02-26T02:18:59;2.73;;;1.67;;
20080;SDS011;10200;49.232;9.222;2024-02-26T02:21:24;2.73;;;2.07;;
20080;SDS011;10200;49.232;9.222;2024-02-26T02:23:50;2.70;;;2.00;;
20080;SDS011;10200;49.232;9.222;2024-02-26T02:26:15;2.13;;;1.83;;
20080;SDS011;10200;49.232;9.222;2024-02-26T02:28:42;2.17;;;1.77;;
20080;SDS011;10200;49.232;9.222;2024-02-26T02:31:08;4.07;;;2.20;;
20080;SDS011;10200;49.232;9.222;2024-02-26T02:33:34;8.17;;;4.23;;
20080;SDS011;10200;49.232;9.222;2024-02-26T02:36:00;5.93;;;4.40;;
20080;SDS011;10200;49.232;9.222;2024-02-26T02:38:25;6.20;;;3.30;;
20080;SDS011;10200;49.232;9.222;2024-02-26T02:40:52;3.03;;;2.20;;
20080;SDS011;10200;49.232;9.222;2024-02-26T02:43:18;2.53;;;1.90;;
20080;SDS011;10200;49.232;9.222;2024-02-26T02:45:43;1.90;;;1.50;;
20080;SDS011;10200;49.232;9.222;2024-02-26T02:48:10;2.50;;;1.67;;
20080;SDS011;10200;49.232;9.222;2024-02-26T02:50:36;2.97;;;1.90;;
20080;SDS011;10200;49.232;9.222;2024-02-26T02:53:02;3.17;;;2.17;;
20080;SDS011;10200;49.232;9.222;2024-02-26T02:55:27;2.40;;;1.63;;
20080;SDS011;10200;49.232;9.222;2024-02-26T02:57:53;3.20;;;1.70;;
20080;SDS011;10200;49.232;9.222;2024-02-26T03:00:19;2.30;;;1.60;;
20080;SDS011;10200;49.232;9.222;2024-02-26T03:02:44;3.60;;;1.40;;
20080;SDS011;10200;49.232;9.222;2024-02-26T03:05:11;2.00;;;1.70;;
20080;SDS011;10200;49.232;9.222;2024-02-26T03:07:37;2.53;;;1.80;;
20080;SDS011;10200;49.232;9.222;2024-02-26T03:10:02;2.60;;;1.77;;
20080;SDS011;10200;49.232;9.222;2024-02-26T03:12:29;3.93;;;1.83;;
20080;SDS011;10200;49.232;9.222;2024-02-26T03:14:55;1.57;;;1.40;;
20080;SDS011;10200;49.232;9.222;2024-02-26T03:17:21;2.37;;;1.80;;
20080;SDS011;10200;49.232;9.222;2024-02-26T03:19:49;2.40;;;1.90;;
20080;SDS011;10200;49.232;9.222;2024-02-26T03:22:18;2.03;;;1.50;;
20080;SDS011;10200;49.232;9.222;2024-02-26T03:24:43;2.53;;;2.33;;
20080;SDS011;10200;49.232;9.222;2024-02-26T03:27:09;2.23;;;1.83;;
20080;SDS011;10200;49.232;9.222;2024-02-26T03:29:35;3.97;;;2.17;;
20080;SDS011;10200;49.232;9.222;2024-02-26T03:32:02;2.30;;;1.90;;
20080;SDS011;10200;49.232;9.222;2024-02-26T03:34:28;6.30;;;2.27;;
20080;SDS011;10200;49.232;9.222;2024-02-26T03:36:55;1.87;;;1.63;;
20080;SDS011;10200;49.232;9.222;2024-02-26T03:39:21;2.10;;;1.90;;
20080;SDS011;10200;49.232;9.222;2024-02-26T03:41:47;2.80;;;1.87;;
20080;SDS011;10200;49.232;9.222;2024-02-26T03:44:13;3.77;;;1.90;;
20080;SDS011;10200;49.232;9.222;2024-02-26T03:46:39;2.83;;;1.90;;
20080;SDS011;10200;49.232;9.222;2024-02-26T03:49:04;2.30;;;2.00;;
20080;SDS011;10200;49.232;9.222;2024-02-26T03:51:30;3.07;;;1.90;;
20080;SDS011;10200;49.232;9.222;2024-02-26T03:53:57;3.20;;;2.10;;
20080;SDS011;10200;49.232;9.222;2024-02-26T03:56:23;3.60;;;2.10;;
20080;SDS011;10200;49.232;9.222;2024-02-26T03:58:49;2.53;;;2.07;;
20080;SDS011;10200;49.232;9.222;2024-02-26T04:01:14;2.57;;;2.00;;
20080;SDS011;10200;49.232;9.222;2024-02-26T04:03:40;2.93;;;2.43;;
20080;SDS011;10200;49.232;9.222;2024-02-26T04:06:10;3.20;;;2.20;;
20080;SDS011;10200;49.232;9.222;2024-02-26T04:08:36;2.00;;;1.73;;
20080;SDS011;10200;49.232;9.222;2024-02-26T04:11:02;4.17;;;2.20;;
20080;SDS011;10200;49.232;9.222;2024-02-26T04:13:32;1.97;;;1.73;;
20080;SDS011;10200;49.232;9.222;2024-02-26T04:15:58;2.67;;;1.90;;
20080;SDS011;10200;49.232;9.222;2024-02-26T04:18:26;5.00;;;2.10;;
20080;SDS011;10200;49.232;9.222;2024-02-26T04:20:52;2.30;;;2.10;;
20080;SDS011;10200;49.232;9.222;2024-02-26T04:23:18;2.37;;;2.17;;
20080;SDS011;10200;49.232;9.222;2024-02-26T04:25:43;4.97;;;2.70;;
20080;SDS011;10200;49.232;9.222;2024-02-26T04:28:09;2.83;;;2.53;;
20080;SDS011;10200;49.232;9.222;2024-02-26T04:30:35;3.00;;;2.27;;
20080;SDS011;10200;49.232;9.222;2024-02-26T04:33:00;2.00;;;1.90;;
20080;SDS011;10200;49.232;9.222;2024-02-26T04:35:26;3.07;;;2.40;;
20080;SDS011;10200;49.232;9.222;2024-02-26T04:37:51;4.27;;;1.93;;
20080;SDS011;10200;49.232;9.222;2024-02-26T04:40:17;3.43;;;2.23;;
20080;SDS011;10200;49.232;9.222;2024-02-26T04:42:42;2.83;;;2.20;;
20080;SDS011;10200;49.232;9.222;2024-02-26T04:45:08;3.80;;;2.50;;
20080;SDS011;10200;49.232;9.222;2024-02-26T04:47:34;3.53;;;2.47;;
20080;SDS011;10200;49.232;9.222;2024-02-26T04:49:59;4.80;;;2.93;;
20080;SDS011;10200;49.232;9.222;2024-02-26T04:52:25;4.03;;;2.93;;
20080;SDS011;10200;49.232;9.222;2024-02-26T04:54:51;4.70;;;2.90;;
20080;SDS011;10200;49.232;9.222;2024-02-26T04:57:16;8.13;;;2.70;;
20080;SDS011;10200;49.232;9.222;2024-02-26T04:59:43;3.43;;;2.73;;
20080;SDS011;10200;49.232;9.222;2024-02-26T05:02:10;3.63;;;2.83;;
20080;SDS011;10200;49.232;9.222;2024-02-26T05:04:38;6.13;;;3.87;;
20080;SDS011;10200;49.232;9.222;2024-02-26T05:07:03;3.27;;;2.70;;
20080;SDS011;10200;49.232;9.222;2024-02-26T05:09:29;4.03;;;3.13;;
20080;SDS011;10200;49.232;9.222;2024-02-26T05:11:55;4.53;;;3.47;;
20080;SDS011;10200;49.232;9.222;2024-02-26T05:14:20;4.23;;;3.20;;
20080;SDS011;10200;49.232;9.222;2024-02-26T05:16:46;3.47;;;3.03;;
20080;SDS011;10200;49.232;9.222;2024-02-26T05:19:12;5.07;;;2.73;;
20080;SDS011;10200;49.232;9.222;2024-02-26T05:21:38;4.13;;;3.07;;
20080;SDS011;10200;49.232;9.222;2024-02-26T05:24:05;3.33;;;2.57;;
20080;SDS011;10200;49.232;9.222;2024-02-26T05:26:31;3.73;;;2.50;;
20080;SDS011;10200;49.232;9.222;2024-02-26T05:28:56;3.80;;;3.07;;
20080;SDS011;10200;49.232;9.222;2024-02-26T05:31:26;2.93;;;2.23;;
20080;SDS011;10200;49.232;9.222;2024-02-26T05:33:52;3.27;;;2.63;;
20080;SDS011;10200;49.232;9.222;2024-02-26T05:38:49;3.67;;;2.73;;
20080;SDS011;10200;49.232;9.222;2024-02-26T05:41:18;2.30;;;2.10;;
20080;SDS011;10200;49.232;9.222;2024-02-26T05:43:48;4.23;;;2.70;;
20080;SDS011;10200;49.232;9.222;2024-02-26T05:46:16;4.50;;;2.73;;
20080;SDS011;10200;49.232;9.222;2024-02-26T05:48:48;2.93;;;2.40;;
20080;SDS011;10200;49.232;9.222;2024-02-26T05:51:15;8.00;;;4.90;;
20080;SDS011;10200;49.232;9.222;2024-02-26T05:53:41;10.13;;;4.70;;
20080;SDS011;10200;49.232;9.222;2024-02-26T05:56:06;9.23;;;5.20;;
20080;SDS011;10200;49.232;9.222;2024-02-26T05:58:32;6.63;;;4.83;;
20080;SDS011;10200;49.232;9.222;2024-02-26T06:00:58;6.83;;;4.53;;
20080;SDS011;10200;49.232;9.222;2024-02-26T06:03:25;7.23;;;4.40;;
20080;SDS011;10200;49.232;9.222;2024-02-26T06:05:50;4.63;;;3.80;;
20080;SDS011;10200;49.232;9.222;2024-02-26T06:08:16;4.87;;;3.70;;
20080;SDS011;10200;49.232;9.222;2024-02-26T06:10:41;4.10;;;3.23;;
20080;SDS011;10200;49.232;9.222;2024-02-26T06:13:07;2.67;;;2.47;;
20080;SDS011;10200;49.232;9.222;2024-02-26T06:15:33;4.77;;;2.83;;
20080;SDS011;10200;49.232;9.222;2024-02-26T06:17:58;3.53;;;2.63;;
20080;SDS011;10200;49.232;9.222;2024-02-26T06:20:24;2.80;;;2.50;;
20080;SDS011;10200;49.232;9.222;2024-02-26T06:22:49;3.73;;;3.07;;
20080;SDS011;10200;49.232;9.222;2024-02-26T06:25:15;5.30;;;2.63;;
20080;SDS011;10200;49.232;9.222;2024-02-26T06:27:41;4.30;;;2.43;;
20080;SDS011;10200;49.232;9.222;2024-02-26T06:30:07;3.40;;;2.33;;
20080;SDS011;10200;49.232;9.222;2024-02-26T06:32:33;3.77;;;2.77;;
20080;SDS011;10200;49.232;9.222;2024-02-26T06:34:59;4.00;;;3.07;;
20080;SDS011;10200;49.232;9.222;2024-02-26T06:37:24;4.80;;;3.27;;
20080;SDS011;10200;49.232;9.222;2024-02-26T06:39:50;4.93;;;2.97;;
20080;SDS011;10200;49.232;9.222;2024-02-26T06:42:17;3.10;;;2.80;;
20080;SDS011;10200;49.232;9.222;2024-02-26T06:44:42;5.83;;;3.30;;
20080;SDS011;10200;49.232;9.222;2024-02-26T06:47:08;4.67;;;3.57;;
20080;SDS011;10200;49.232;9.222;2024-02-26T06:49:34;4.70;;;3.40;;
20080;SDS011;10200;49.232;9.222;2024-02-26T06:51:59;4.10;;;2.90;;
20080;SDS011;10200;49.232;9.222;2024-02-26T06:54:25;4.53;;;3.00;;
20080;SDS011;10200;49.232;9.222;2024-02-26T06:56:51;4.57;;;3.00;;
20080;SDS011;10200;49.232;9.222;2024-02-26T06:59:16;3.27;;;2.43;;
20080;SDS011;10200;49.232;9.222;2024-02-26T07:01:42;4.80;;;2.97;;
20080;SDS011;10200;49.232;9.222;2024-02-26T07:04:07;4.37;;;3.27;;
20080;SDS011;10200;49.232;9.222;2024-02-26T07:06:33;3.60;;;3.13;;
20080;SDS011;10200;49.232;9.222;2024-02-26T07:08:59;5.70;;;3.70;;
20080;SDS011;10200;49.232;9.222;2024-02-26T07:11:24;6.27;;;4.20;;
20080;SDS011;10200;49.232;9.222;2024-02-26T07:13:50;6.23;;;4.00;;
20080;SDS011;10200;49.232;9.222;2024-02-26T07:16:16;6.53;;;3.57;;
20080;SDS011;10200;49.232;9.222;2024-02-26T07:18:41;5.37;;;3.13;;
20080;SDS011;10200;49.232;9.222;2024-02-26T07:21:11;2.83;;;2.53;;
20080;SDS011;10200;49.232;9.222;2024-02-26T07:23:37;5.67;;;4.43;;
20080;SDS011;10200;49.232;9.222;2024-02-26T07:26:03;4.60;;;4.07;;
20080;SDS011;10200;49.232;9.222;2024-02-26T07:28:28;3.83;;;3.40;;
20080;SDS011;10200;49.232;9.222;2024-02-26T07:30:54;4.73;;;3.67;;
20080;SDS011;10200;49.232;9.222;2024-02-26T07:33:20;5.97;;;3.67;;
20080;SDS011;10200;49.232;9.222;2024-02-26T07:35:45;5.93;;;4.40;;
20080;SDS011;10200;49.232;9.222;2024-02-26T07:38:11;6.23;;;4.37;;
20080;SDS011;10200;49.232;9.222;2024-02-26T07:40:38;4.87;;;3.47;;
20080;SDS011;10200;49.232;9.222;2024-02-26T07:43:03;4.70;;;3.53;;
20080;SDS011;10200;49.232;9.222;2024-02-26T07:45:29;5.03;;;4.13;;
20080;SDS011;10200;49.232;9.222;2024-02-26T07:47:55;4.77;;;3.60;;
20080;SDS011;10200;49.232;9.222;2024-02-26T07:50:20;5.73;;;4.00;;
20080;SDS011;10200;49.232;9.222;2024-02-26T07:52:46;4.93;;;3.87;;
20080;SDS011;10200;49.232;9.222;2024-02-26T07:55:11;6.37;;;3.80;;
20080;SDS011;10200;49.232;9.222;2024-02-26T07:57:37;5.30;;;3.40;;
20080;SDS011;10200;49.232;9.222;2024-02-26T08:00:06;3.67;;;3.03;;
20080;SDS011;10200;49.232;9.222;2024-02-26T08:02:34;4.10;;;3.10;;
20080;SDS011;10200;49.232;9.222;2024-02-26T08:05:00;6.40;;;3.77;;
20080;SDS011;10200;49.232;9.222;2024-02-26T08:07:25;5.00;;;3.63;;
20080;SDS011;10200;49.232;9.222;2024-02-26T08:09:51;4.87;;;3.60;;
20080;SDS011;10200;49.232;9.222;2024-02-26T08:12:16;6.10;;;3.40;;
20080;SDS011;10200;49.232;9.222;2024-02-26T08:14:42;4.40;;;3.17;;
20080;SDS011;10200;49.232;9.222;2024-02-26T08:17:08;5.37;;;3.80;;
20080;SDS011;10200;49.232;9.222;2024-02-26T08:19:34;4.60;;;3.57;;
20080;SDS011;10200;49.232;9.222;2024-02-26T08:22:00;7.70;;;3.47;;
20080;SDS011;10200;49.232;9.222;2024-02-26T08:24:26;4.90;;;3.40;;
20080;SDS011;10200;49.232;9.222;2024-02-26T08:26:52;4.90;;;3.43;;
20080;SDS011;10200;49.232;9.222;2024-02-26T08:29:17;4.63;;;3.23;;
20080;SDS011;10200;49.232;9.222;2024-02-26T08:31:43;3.90;;;3.17;;
20080;SDS011;10200;49.232;9.222;2024-02-26T08:34:09;4.13;;;3.27;;
20080;SDS011;10200;49.232;9.222;2024-02-26T08:36:34;3.77;;;3.37;;
20080;SDS011;10200;49.232;9.222;2024-02-26T08:39:00;4.40;;;3.37;;
20080;SDS011;10200;49.232;9.222;2024-02-26T08:41:26;5.73;;;3.17;;
20080;SDS011;10200;49.232;9.222;2024-02-26T08:43:51;3.33;;;2.63;;
20080;SDS011;10200;49.232;9.222;2024-02-26T08:46:17;4.20;;;3.37;;
20080;SDS011;10200;49.232;9.222;2024-02-26T08:48:42;6.03;;;3.13;;
20080;SDS011;10200;49.232;9.222;2024-02-26T08:51:08;6.67;;;4.33;;
20080;SDS011;10200;49.232;9.222;2024-02-26T08:53:35;7.03;;;4.70;;
20080;SDS011;10200;49.232;9.222;2024-02-26T08:56:01;7.47;;;4.40;;
20080;SDS011;10200;49.232;9.222;2024-02-26T08:58:27;5.20;;;4.13;;
20080;SDS011;10200;49.232;9.222;2024-02-26T09:00:53;5.50;;;4.00;;
20080;SDS011;10200;49.232;9.222;2024-02-26T09:03:19;6.17;;;4.03;;
20080;SDS011;10200;49.232;9.222;2024-02-26T09:05:44;5.00;;;3.60;;
20080;SDS011;10200;49.232;9.222;2024-02-26T09:08:10;6.13;;;3.80;;
20080;SDS011;10200;49.232;9.222;2024-02-26T09:10:36;7.30;;;4.33;;
20080;SDS011;10200;49.232;9.222;2024-02-26T09:13:01;4.83;;;3.60;;
20080;SDS011;10200;49.232;9.222;2024-02-26T09:15:27;4.77;;;3.67;;
20080;SDS011;10200;49.232;9.222;2024-02-26T09:17:53;5.87;;;3.57;;
20080;SDS011;10200;49.232;9.222;2024-02-26T09:20:18;4.63;;;3.33;;
20080;SDS011;10200;49.232;9.222;2024-02-26T09:22:48;4.83;;;3.63;;
20080;SDS011;10200;49.232;9.222;2024-02-26T09:25:14;5.57;;;4.03;;
20080;SDS011;10200;49.232;9.222;2024-02-26T09:27:43;5.70;;;3.53;;
20080;SDS011;10200;49.232;9.222;2024-02-26T09:30:12;5.53;;;3.93;;
20080;SDS011;10200;49.232;9.222;2024-02-26T09:32:38;4.87;;;3.83;;
20080;SDS011;10200;49.232;9.222;2024-02-26T09:35:05;6.00;;;4.40;;
20080;SDS011;10200;49.232;9.222;2024-02-26T09:37:31;4.90;;;3.87;;
20080;SDS011;10200;49.232;9.222;2024-02-26T09:39:58;5.60;;;3.70;;
20080;SDS011;10200;49.232;9.222;2024-02-26T09:42:25;5.47;;;3.73;;
20080;SDS011;10200;49.232;9.222;2024-02-26T09:44:53;6.77;;;4.33;;
20080;SDS011;10200;49.232;9.222;2024-02-26T09:47:25;5.77;;;4.07;;
20080;SDS011;10200;49.232;9.222;2024-02-26T09:49:54;4.87;;;3.67;;
20080;SDS011;10200;49.232;9.222;2024-02-26T09:52:21;5.23;;;3.90;;
20080;SDS011;10200;49.232;9.222;2024-02-26T09:54:49;4.90;;;3.80;;
20080;SDS011;10200;49.232;9.222;2024-02-26T09:57:15;5.57;;;4.00;;
20080;SDS011;10200;49.232;9.222;2024-02-26T09:59:42;4.67;;;3.83;;
20080;SDS011;10200;49.232;9.222;2024-02-26T10:02:11;6.23;;;3.67;;
20080;SDS011;10200;49.232;9.222;2024-02-26T10:04:38;7.10;;;4.10;;
20080;SDS011;10200;49.232;9.222;2024-02-26T10:07:05;6.37;;;3.93;;
20080;SDS011;10200;49.232;9.222;2024-02-26T10:09:34;5.03;;;3.57;;
20080;SDS011;10200;49.232;9.222;2024-02-26T10:12:00;4.50;;;3.57;;
20080;SDS011;10200;49.232;9.222;2024-02-26T10:14:26;5.80;;;4.10;;
20080;SDS011;10200;49.232;9.222;2024-02-26T10:16:52;4.23;;;3.33;;
20080;SDS011;10200;49.232;9.222;2024-02-26T10:19:24;5.50;;;4.50;;
20080;SDS011;10200;49.232;9.222;2024-02-26T10:21:54;5.20;;;3.63;;
20080;SDS011;10200;49.232;9.222;2024-02-26T10:24:24;5.70;;;3.60;;
20080;SDS011;10200;49.232;9.222;2024-02-26T10:26:50;4.13;;;3.13;;
20080;SDS011;10200;49.232;9.222;2024-02-26T10:29:20;4.47;;;3.43;;
20080;SDS011;10200;49.232;9.222;2024-02-26T10:31:47;7.27;;;4.00;;
20080;SDS011;10200;49.232;9.222;2024-02-26T10:34:12;4.83;;;3.73;;
20080;SDS011;10200;49.232;9.222;2024-02-26T10:36:39;5.97;;;3.93;;
20080;SDS011;10200;49.232;9.222;2024-02-26T10:39:09;4.37;;;3.60;;
20080;SDS011;10200;49.232;9.222;2024-02-26T10:41:37;5.77;;;4.10;;
20080;SDS011;10200;49.232;9.222;2024-02-26T10:44:03;4.30;;;3.30;;
20080;SDS011;10200;49.232;9.222;2024-02-26T10:46:29;5.17;;;3.77;;
20080;SDS011;10200;49.232;9.222;2024-02-26T10:48:54;4.93;;;2.70;;
20080;SDS011;10200;49.232;9.222;2024-02-26T10:51:28;6.13;;;2.60;;
20080;SDS011;10200;49.232;9.222;2024-02-26T10:53:57;4.10;;;3.13;;
20080;SDS011;10200;49.232;9.222;2024-02-26T10:56:26;3.83;;;2.90;;
20080;SDS011;10200;49.232;9.222;2024-02-26T10:58:54;3.50;;;2.53;;
20080;SDS011;10200;49.232;9.222;2024-02-26T11:01:21;2.60;;;2.40;;
20080;SDS011;10200;49.232;9.222;2024-02-26T11:03:49;2.47;;;2.17;;
20080;SDS011;10200;49.232;9.222;2024-02-26T11:06:17;3.47;;;2.30;;
20080;SDS011;10200;49.232;9.222;2024-02-26T11:08:44;2.67;;;1.93;;
20080;SDS011;10200;49.232;9.222;2024-02-26T11:11:13;2.83;;;2.30;;
20080;SDS011;10200;49.232;9.222;2024-02-26T11:13:40;3.27;;;2.20;;
20080;SDS011;10200;49.232;9.222;2024-02-26T11:16:09;2.47;;;2.00;;
20080;SDS011;10200;49.232;9.222;2024-02-26T11:18:36;1.87;;;1.60;;
20080;SDS011;10200;49.232;9.222;2024-02-26T11:21:05;3.07;;;2.23;;
20080;SDS011;10200;49.232;9.222;2024-02-26T11:23:33;4.37;;;2.37;;
20080;SDS011;10200;49.232;9.222;2024-02-26T11:26:01;3.03;;;2.10;;
20080;SDS011;10200;49.232;9.222;2024-02-26T11:28:30;3.87;;;2.07;;
20080;SDS011;10200;49.232;9.222;2024-02-26T11:30:59;2.63;;;2.10;;
20080;SDS011;10200;49.232;9.222;2024-02-26T11:33:25;4.17;;;2.10;;
20080;SDS011;10200;49.232;9.222;2024-02-26T11:35:52;3.43;;;2.10;;
20080;SDS011;10200;49.232;9.222;2024-02-26T11:38:23;1.80;;;1.60;;
20080;SDS011;10200;49.232;9.222;2024-02-26T11:40:50;2.53;;;2.00;;
20080;SDS011;10200;49.232;9.222;2024-02-26T11:43:18;3.37;;;2.37;;
20080;SDS011;10200;49.232;9.222;2024-02-26T11:45:49;4.67;;;1.80;;
20080;SDS011;10200;49.232;9.222;2024-02-26T11:48:20;4.67;;;2.47;;
20080;SDS011;10200;49.232;9.222;2024-02-26T11:51:05;5.07;;;2.77;;
20080;SDS011;10200;49.232;9.222;2024-02-26T11:53:31;2.70;;;2.40;;
20080;SDS011;10200;49.232;9.222;2024-02-26T11:59:05;4.10;;;1.90;;
20080;SDS011;10200;49.232;9.222;2024-02-26T12:04:04;2.33;;;1.33;;
20080;SDS011;10200;49.232;9.222;2024-02-26T12:06:31;2.33;;;1.30;;
20080;SDS011;10200;49.232;9.222;2024-02-26T12:09:05;1.90;;;1.50;;
20080;SDS011;10200;49.232;9.222;2024-02-26T12:11:31;2.53;;;1.60;;
20080;SDS011;10200;49.232;9.222;2024-02-26T12:13:57;2.23;;;1.57;;
20080;SDS011;10200;49.232;9.222;2024-02-26T12:16:39;1.53;;;1.23;;
20080;SDS011;10200;49.232;9.222;2024-02-26T12:19:05;2.37;;;1.60;;
20080;SDS011;10200;49.232;9.222;2024-02-26T12:21:35;2.00;;;1.50;;
20080;SDS011;10200;49.232;9.222;2024-02-26T12:24:11;2.37;;;1.30;;
20080;SDS011;10200;49.232;9.222;2024-02-26T12:26:39;4.43;;;1.30;;
20080;SDS011;10200;49.232;9.222;2024-02-26T12:29:05;2.40;;;1.30;;
20080;SDS011;10200;49.232;9.222;2024-02-26T12:31:31;1.57;;;0.97;;
20080;SDS011;10200;49.232;9.222;2024-02-26T12:33:58;1.43;;;0.90;;
20080;SDS011;10200;49.232;9.222;2024-02-26T12:36:24;1.73;;;1.30;;
20080;SDS011;10200;49.232;9.222;2024-02-26T12:38:50;1.27;;;1.10;;
20080;SDS011;10200;49.232;9.222;2024-02-26T12:41:16;1.20;;;1.00;;
20080;SDS011;10200;49.232;9.222;2024-02-26T12:43:42;2.40;;;1.50;;
20080;SDS011;10200;49.232;9.222;2024-02-26T12:46:08;1.13;;;1.03;;
20080;SDS011;10200;49.232;9.222;2024-02-26T12:48:33;2.07;;;1.40;;
20080;SDS011;10200;49.232;9.222;2024-02-26T12:51:00;4.27;;;1.47;;
20080;SDS011;10200;49.232;9.222;2024-02-26T12:53:26;2.57;;;1.30;;
20080;SDS011;10200;49.232;9.222;2024-02-26T12:55:52;1.97;;;1.20;;
20080;SDS011;10200;49.232;9.222;2024-02-26T12:58:19;3.30;;;1.87;;
20080;SDS011;10200;49.232;9.222;2024-02-26T13:00:49;1.10;;;1.00;;
20080;SDS011;10200;49.232;9.222;2024-02-26T13:03:16;1.73;;;1.30;;
20080;SDS011;10200;49.232;9.222;2024-02-26T13:05:42;4.53;;;1.23;;
20080;SDS011;10200;49.232;9.222;2024-02-26T13:08:08;1.87;;;1.73;;
20080;SDS011;10200;49.232;9.222;2024-02-26T13:10:33;1.07;;;0.90;;
20080;SDS011;10200;49.232;9.222;2024-02-26T13:13:01;0.50;;;0.50;;
20080;SDS011;10200;49.232;9.222;2024-02-26T13:15:27;1.50;;;0.90;;
20080;SDS011;10200;49.232;9.222;2024-02-26T13:17:53;1.10;;;1.00;;
20080;SDS011;10200;49.232;9.222;2024-02-26T13:20:30;1.70;;;1.43;;
20080;SDS011;10200;49.232;9.222;2024-02-26T13:23:05;1.60;;;1.10;;
20080;SDS011;10200;49.232;9.222;2024-02-26T13:25:33;0.80;;;0.80;;
20080;SDS011;10200;49.232;9.222;2024-02-26T13:30:38;1.63;;;1.10;;
20080;SDS011;10200;49.232;9.222;2024-02-26T13:33:07;0.80;;;0.80;;
20080;SDS011;10200;49.232;9.222;2024-02-26T13:35:36;0.83;;;0.70;;
20080;SDS011;10200;49.232;9.222;2024-02-26T13:38:04;0.83;;;0.70;;
20080;SDS011;10200;49.232;9.222;2024-02-26T13:40:30;1.17;;;0.90;;
20080;SDS011;10200;49.232;9.222;2024-02-26T13:42:55;2.73;;;1.33;;
20080;SDS011;10200;49.232;9.222;2024-02-26T13:45:21;1.40;;;1.23;;
20080;SDS011;10200;49.232;9.222;2024-02-26T13:47:46;1.80;;;0.83;;
20080;SDS011;10200;49.232;9.222;2024-02-26T13:50:12;1.87;;;0.90;;
20080;SDS011;10200;49.232;9.222;2024-02-26T13:52:37;2.00;;;1.50;;
20080;SDS011;10200;49.232;9.222;2024-02-26T13:55:03;1.40;;;1.27;;
20080;SDS011;10200;49.232;9.222;2024-02-26T13:57:29;1.40;;;1.30;;
20080;SDS011;10200;49.232;9.222;2024-02-26T13:59:55;1.23;;;1.10;;
20080;SDS011;10200;49.232;9.222;2024-02-26T14:02:21;4.73;;;1.53;;
20080;SDS011;10200;49.232;9.222;2024-02-26T14:04:47;1.73;;;1.20;;
20080;SDS011;10200;49.232;9.222;2024-02-26T14:07:12;2.53;;;1.30;;
20080;SDS011;10200;49.232;9.222;2024-02-26T14:09:38;2.50;;;1.13;;
20080;SDS011;10200;49.232;9.222;2024-02-26T14:12:04;1.30;;;1.20;;
20080;SDS011;10200;49.232;9.222;2024-02-26T14:14:30;1.23;;;0.97;;
20080;SDS011;10200;49.232;9.222;2024-02-26T14:16:58;1.00;;;0.90;;
20080;SDS011;10200;49.232;9.222;2024-02-26T14:19:24;1.13;;;0.83;;
20080;SDS011;10200;49.232;9.222;2024-02-26T14:21:49;0.83;;;0.83;;
20080;SDS011;10200;49.232;9.222;2024-02-26T14:24:15;1.60;;;0.80;;
20080;SDS011;10200;49.232;9.222;2024-02-26T14:26:41;1.23;;;0.80;;
20080;SDS011;10200;49.232;9.222;2024-02-26T14:29:07;1.07;;;0.90;;
20080;SDS011;10200;49.232;9.222;2024-02-26T14:31:33;0.90;;;0.77;;
20080;SDS011;10200;49.232;9.222;2024-02-26T14:33:58;1.10;;;0.93;;
20080;SDS011;10200;49.232;9.222;2024-02-26T14:36:24;1.23;;;1.00;;
20080;SDS011;10200;49.232;9.222;2024-02-26T14:38:50;0.70;;;0.70;;
20080;SDS011;10200;49.232;9.222;2024-02-26T14:41:16;0.97;;;0.97;;
20080;SDS011;10200;49.232;9.222;2024-02-26T14:43:42;1.00;;;0.70;;
20080;SDS011;10200;49.232;9.222;2024-02-26T14:46:07;0.90;;;0.80;;
20080;SDS011;10200;49.232;9.222;2024-02-26T14:48:33;1.13;;;0.90;;
20080;SDS011;10200;49.232;9.222;2024-02-26T14:50:59;5.90;;;1.00;;
20080;SDS011;10200;49.232;9.222;2024-02-26T14:53:25;0.83;;;0.73;;